Time;durP1;ratioP1;P1;durP2;ratioP2;P2;SDS_P1;SDS_P2;PMS_P1;PMS_P2;Temp;Humidity;BMP_temperature;BMP_pressure;BME280_temperature;BME280_humidity;BME280_pressure;Samples;Min_cycle;Max_cycle;Signal;HPM_P1;HPM_P2
2023/12/21 00:01:08;;;;;;;19.35;3.53;;;8.90;99.90;;;;;;5031254;28;20026;-71
2023/12/21 00:03:34;;;;;;;14.27;2.90;;;8.90;99.90;;;;;;5017263;28;20524;-71
2023/12/21 00:05:59;;;;;;;17.75;3.28;;;8.90;99.90;;;;;;5023525;28;20029;-71
2023/12/21 00:08:25;;;;;;;18.25;3.60;;;8.90;99.90;;;;;;5027028;28;20090;-71
2023/12/21 00:10:50;;;;;;;12.38;2.67;;;8.90;99.90;;;;;;5029808;28;20022;-71
2023/12/21 00:13:16;;;;;;;13.07;3.40;;;8.90;99.90;;;;;;5030728;28;20021;-71
2023/12/21 00:15:41;;;;;;;13.55;3.42;;;8.90;99.90;;;;;;5029051;28;20037;-71
2023/12/21 00:18:07;;;;;;;17.50;3.08;;;8.90;99.90;;;;;;5031485;28;20474;-71
2023/12/21 00:20:32;;;;;;;21.67;3.47;;;8.90;99.90;;;;;;5024739;28;20036;-71
2023/12/21 00:22:58;;;;;;;11.60;3.05;;;8.90;99.90;;;;;;5030472;28;20030;-71
2023/12/21 00:25:23;;;;;;;13.13;3.55;;;9.00;99.90;;;;;;5029437;28;20056;-72
2023/12/21 00:27:49;;;;;;;15.85;4.22;;;9.00;99.90;;;;;;5031348;28;20029;-71
2023/12/21 00:30:15;;;;;;;16.90;3.90;;;9.00;99.90;;;;;;5027447;28;20037;-71
2023/12/21 00:32:40;;;;;;;16.35;4.20;;;9.00;99.90;;;;;;5028582;28;20527;-71
2023/12/21 00:35:06;;;;;;;14.20;4.43;;;9.00;99.90;;;;;;5030375;28;20382;-71
2023/12/21 00:37:36;;;;;;;17.38;4.35;;;9.00;99.90;;;;;;5030513;28;20041;-71
2023/12/21 00:40:05;;;;;;;15.40;4.15;;;9.00;99.90;;;;;;5032760;28;20028;-71
2023/12/21 00:42:36;;;;;;;13.00;4.57;;;8.90;99.90;;;;;;5027431;28;20025;-71
2023/12/21 00:45:03;;;;;;;14.98;4.45;;;9.00;99.90;;;;;;5031840;28;20116;-71
2023/12/21 00:47:28;;;;;;;15.73;4.50;;;9.00;99.90;;;;;;5028965;28;20024;-71
2023/12/21 00:49:54;;;;;;;15.55;4.10;;;8.90;99.90;;;;;;5030599;28;20467;-71
2023/12/21 00:52:20;;;;;;;13.85;3.92;;;9.00;99.90;;;;;;5029205;28;20501;-71
2023/12/21 00:54:45;;;;;;;13.48;4.07;;;9.00;99.90;;;;;;5027034;28;20029;-71
2023/12/21 00:57:11;;;;;;;16.33;4.28;;;9.00;99.90;;;;;;5032369;28;20092;-71
2023/12/21 00:59:36;;;;;;;14.90;4.57;;;9.00;99.90;;;;;;5032961;28;20041;-71
2023/12/21 01:02:02;;;;;;;14.73;4.28;;;9.00;99.90;;;;;;5031774;28;20469;-71
2023/12/21 01:04:27;;;;;;;15.07;4.70;;;9.00;99.90;;;;;;5019770;28;20060;-71
2023/12/21 01:06:53;;;;;;;19.42;5.50;;;9.00;99.90;;;;;;5031763;28;20088;-71
2023/12/21 01:09:18;;;;;;;19.02;5.90;;;9.00;99.90;;;;;;5031140;28;20049;-71
2023/12/21 01:11:44;;;;;;;18.60;6.00;;;9.00;99.90;;;;;;5031820;28;20057;-71
2023/12/21 01:14:10;;;;;;;16.73;6.40;;;9.00;99.90;;;;;;5031786;28;20030;-71
2023/12/21 01:16:35;;;;;;;22.60;6.93;;;9.00;99.90;;;;;;5030177;28;20076;-71
2023/12/21 01:19:01;;;;;;;20.33;7.38;;;9.00;99.90;;;;;;5032029;28;20033;-71
2023/12/21 01:21:26;;;;;;;21.20;7.00;;;9.00;99.90;;;;;;5030948;28;20021;-71
2023/12/21 01:23:52;;;;;;;22.10;5.85;;;9.00;99.90;;;;;;5031943;28;20033;-71
2023/12/21 01:26:17;;;;;;;16.35;6.25;;;9.00;99.90;;;;;;5030679;28;20036;-71
2023/12/21 01:28:43;;;;;;;20.25;5.38;;;9.00;99.90;;;;;;5031451;28;20044;-71
2023/12/21 01:31:09;;;;;;;24.60;6.07;;;9.10;99.90;;;;;;5032043;28;20485;-71
2023/12/21 01:33:34;;;;;;;15.88;5.55;;;9.10;99.90;;;;;;5026330;28;20398;-71
2023/12/21 01:36:00;;;;;;;14.88;4.57;;;9.10;99.90;;;;;;5031697;28;20036;-71
2023/12/21 01:38:25;;;;;;;19.65;5.50;;;9.10;99.90;;;;;;5031402;28;20111;-71
2023/12/21 01:40:51;;;;;;;14.10;3.65;;;9.10;99.90;;;;;;5030888;28;20064;-71
2023/12/21 01:43:17;;;;;;;16.48;3.78;;;9.20;99.90;;;;;;5031135;28;20036;-71
2023/12/21 01:45:42;;;;;;;16.50;4.50;;;9.20;99.90;;;;;;5030200;28;20397;-71
2023/12/21 01:48:09;;;;;;;14.45;3.55;;;9.20;99.90;;;;;;5028059;28;20053;-71
2023/12/21 01:50:36;;;;;;;14.82;3.40;;;9.20;99.90;;;;;;5030084;28;20044;-71
2023/12/21 01:53:03;;;;;;;14.68;3.50;;;9.20;99.90;;;;;;5020359;28;20033;-71
2023/12/21 01:55:30;;;;;;;8.88;3.03;;;9.20;99.90;;;;;;5030941;28;20041;-71
2023/12/21 01:57:58;;;;;;;13.88;4.75;;;9.30;99.90;;;;;;5031277;28;20027;-71
2023/12/21 02:00:24;;;;;;;13.13;3.58;;;9.30;99.90;;;;;;5029875;28;20029;-71
2023/12/21 02:02:50;;;;;;;13.23;3.33;;;9.30;99.90;;;;;;5027383;28;20053;-71
2023/12/21 02:05:16;;;;;;;17.17;4.40;;;9.30;99.90;;;;;;5032505;28;20400;-71
2023/12/21 02:07:41;;;;;;;12.90;4.15;;;9.30;99.90;;;;;;5030228;28;20025;-71
2023/12/21 02:10:07;;;;;;;16.90;4.10;;;9.30;99.90;;;;;;5028786;28;20041;-71
2023/12/21 02:12:33;;;;;;;14.93;3.47;;;9.30;99.90;;;;;;5026695;28;20131;-71
2023/12/21 02:14:58;;;;;;;13.57;3.60;;;9.40;99.90;;;;;;5032554;28;20057;-71
2023/12/21 02:17:25;;;;;;;16.80;3.53;;;9.40;99.90;;;;;;5029423;28;20045;-71
2023/12/21 02:19:51;;;;;;;13.15;3.83;;;9.50;99.90;;;;;;5030089;28;20032;-71
2023/12/21 02:22:19;;;;;;;16.83;3.53;;;9.40;99.90;;;;;;5030161;28;20462;-72
2023/12/21 02:24:45;;;;;;;24.63;3.92;;;9.40;99.90;;;;;;5032282;28;20083;-72
2023/12/21 02:27:10;;;;;;;21.50;3.67;;;9.40;99.90;;;;;;5031694;28;20025;-72
2023/12/21 02:29:36;;;;;;;16.08;3.35;;;9.40;99.90;;;;;;5027453;28;20037;-72
2023/12/21 02:32:02;;;;;;;16.38;3.60;;;9.30;99.90;;;;;;5025812;28;20452;-72
2023/12/21 02:34:27;;;;;;;14.95;3.40;;;9.30;99.90;;;;;;5029529;28;20026;-72
2023/12/21 02:36:53;;;;;;;15.02;3.35;;;9.30;99.90;;;;;;5025188;28;20025;-72
2023/12/21 02:39:18;;;;;;;14.77;4.00;;;9.20;99.90;;;;;;5029860;28;20025;-72
2023/12/21 02:41:46;;;;;;;21.48;4.40;;;9.10;99.90;;;;;;5029287;28;20036;-72
2023/12/21 02:44:12;;;;;;;22.25;5.07;;;9.20;99.90;;;;;;5030400;28;20091;-72
2023/12/21 02:46:38;;;;;;;19.92;5.18;;;9.10;99.90;;;;;;5029303;28;20017;-72
2023/12/21 02:49:03;;;;;;;15.40;4.28;;;9.10;99.90;;;;;;5029060;28;20029;-72
2023/12/21 02:51:29;;;;;;;23.42;5.57;;;9.10;99.90;;;;;;5027461;28;20041;-72
2023/12/21 02:53:54;;;;;;;22.75;6.05;;;9.10;99.90;;;;;;5029332;28;20370;-72
2023/12/21 02:56:20;;;;;;;19.38;4.40;;;9.10;99.90;;;;;;5030993;28;20018;-72
2023/12/21 02:58:45;;;;;;;17.83;5.45;;;9.10;99.90;;;;;;5028071;28;20029;-72
2023/12/21 03:01:11;;;;;;;23.30;5.47;;;9.10;99.90;;;;;;5025246;28;20029;-72
2023/12/21 03:03:37;;;;;;;19.98;4.82;;;9.00;99.90;;;;;;5029357;28;21620;-72
2023/12/21 03:06:03;;;;;;;15.73;3.70;;;9.10;99.90;;;;;;5031141;28;20022;-72
2023/12/21 03:08:29;;;;;;;26.00;4.85;;;9.10;99.90;;;;;;5028826;28;20493;-72
2023/12/21 03:10:54;;;;;;;22.05;5.68;;;9.10;99.90;;;;;;5028051;28;20041;-72
2023/12/21 03:13:20;;;;;;;26.80;4.85;;;9.10;99.90;;;;;;5031266;28;20029;-72
2023/12/21 03:15:45;;;;;;;22.70;5.80;;;9.10;99.90;;;;;;5030049;28;20033;-72
2023/12/21 03:18:12;;;;;;;16.67;4.10;;;9.10;99.90;;;;;;5027728;28;20021;-72
2023/12/21 03:20:38;;;;;;;20.90;5.18;;;9.10;99.90;;;;;;5029102;28;20370;-72
2023/12/21 03:23:04;;;;;;;18.10;5.13;;;9.10;99.90;;;;;;5025979;28;20026;-72
2023/12/21 03:25:30;;;;;;;23.13;4.15;;;9.20;99.90;;;;;;5029982;28;20474;-72
2023/12/21 03:27:55;;;;;;;18.63;4.30;;;9.10;99.90;;;;;;5031011;28;20025;-72
2023/12/21 03:30:21;;;;;;;20.08;4.30;;;9.10;99.90;;;;;;5025776;28;20046;-73
2023/12/21 03:32:47;;;;;;;14.93;3.70;;;9.10;99.90;;;;;;5023798;28;20505;-72
2023/12/21 03:35:13;;;;;;;22.55;4.70;;;9.10;99.90;;;;;;5029494;28;20064;-72
2023/12/21 03:37:38;;;;;;;29.15;5.65;;;9.10;99.90;;;;;;5026087;28;20032;-72
2023/12/21 03:40:07;;;;;;;14.32;2.53;;;9.10;99.90;;;;;;5028746;28;20398;-72
2023/12/21 03:42:33;;;;;;;14.20;3.53;;;9.10;99.90;;;;;;5029258;28;20393;-72
2023/12/21 03:44:58;;;;;;;20.23;4.18;;;9.10;99.90;;;;;;5027636;28;20030;-72
2023/12/21 03:47:24;;;;;;;20.42;3.40;;;9.10;99.90;;;;;;5028365;28;20021;-72
2023/12/21 03:49:50;;;;;;;18.35;3.20;;;9.20;99.90;;;;;;5025832;28;20091;-72
2023/12/21 03:52:16;;;;;;;14.50;3.58;;;9.20;99.90;;;;;;5020586;28;20061;-72
2023/12/21 03:54:42;;;;;;;13.75;4.00;;;9.20;99.90;;;;;;5028124;28;20511;-72
2023/12/21 03:57:07;;;;;;;17.70;3.50;;;9.20;99.90;;;;;;5030028;28;20092;-72
2023/12/21 03:59:34;;;;;;;19.05;3.35;;;9.20;99.90;;;;;;5030236;28;20056;-72
2023/12/21 04:02:01;;;;;;;16.67;3.42;;;9.20;99.90;;;;;;5027941;28;20026;-72
2023/12/21 04:04:27;;;;;;;21.60;3.33;;;9.20;99.90;;;;;;5028442;28;20446;-72
2023/12/21 04:06:52;;;;;;;27.42;4.78;;;9.20;99.90;;;;;;5028456;28;20127;-72
2023/12/21 04:09:18;;;;;;;20.48;3.28;;;9.20;99.90;;;;;;5031054;28;20083;-72
2023/12/21 04:11:43;;;;;;;16.05;3.33;;;9.10;99.90;;;;;;5025828;28;20029;-72
2023/12/21 04:14:09;;;;;;;15.68;3.92;;;9.10;99.90;;;;;;5027879;28;20025;-72
2023/12/21 04:16:34;;;;;;;19.10;3.95;;;9.10;99.90;;;;;;5028492;28;20025;-72
2023/12/21 04:19:03;;;;;;;19.58;3.83;;;9.20;99.90;;;;;;5029849;28;20447;-72
2023/12/21 04:21:29;;;;;;;25.05;4.10;;;9.20;99.90;;;;;;5026007;28;20055;-72
2023/12/21 04:23:55;;;;;;;17.83;3.92;;;9.20;99.90;;;;;;5030688;28;20061;-72
2023/12/21 04:26:22;;;;;;;15.55;3.75;;;9.20;99.90;;;;;;5024210;28;20113;-72
2023/12/21 04:28:48;;;;;;;16.98;3.85;;;9.20;99.90;;;;;;5026059;28;20389;-72
2023/12/21 04:31:22;;;;;;;21.05;4.88;;;9.20;99.90;;;;;;5028397;28;20120;-72
2023/12/21 04:33:51;;;;;;;22.40;3.90;;;9.30;99.90;;;;;;5026112;28;20021;-72
2023/12/21 04:36:17;;;;;;;17.98;3.60;;;9.30;99.90;;;;;;5027497;28;20038;-72
2023/12/21 04:38:43;;;;;;;17.75;3.85;;;9.30;99.90;;;;;;5029279;28;20079;-72
2023/12/21 04:41:09;;;;;;;24.80;3.45;;;9.30;99.90;;;;;;5027846;28;20038;-72
2023/12/21 04:43:34;;;;;;;21.73;4.32;;;9.30;99.90;;;;;;5023886;28;20067;-72
2023/12/21 04:46:00;;;;;;;19.60;3.58;;;9.40;99.90;;;;;;5028626;28;20017;-72
2023/12/21 04:48:25;;;;;;;16.33;3.05;;;9.40;99.90;;;;;;5025525;28;20044;-72
2023/12/21 04:50:51;;;;;;;18.65;3.50;;;9.50;99.90;;;;;;5025480;28;20152;-72
2023/12/21 04:53:18;;;;;;;17.92;2.90;;;9.50;99.90;;;;;;5028888;28;20025;-72
2023/12/21 04:55:43;;;;;;;20.23;3.20;;;9.50;99.90;;;;;;5029328;28;20072;-72
2023/12/21 04:58:09;;;;;;;17.77;3.03;;;9.60;99.90;;;;;;5028154;28;20025;-73
2023/12/21 05:00:34;;;;;;;17.30;3.05;;;9.60;99.90;;;;;;5024473;28;20030;-72
2023/12/21 05:03:00;;;;;;;13.80;3.00;;;9.60;99.90;;;;;;5026338;28;20442;-73
2023/12/21 05:05:25;;;;;;;16.70;3.90;;;9.70;99.90;;;;;;5019846;28;20157;-72
2023/12/21 05:07:53;;;;;;;19.17;3.05;;;9.70;99.90;;;;;;5025771;28;20026;-72
2023/12/21 05:10:18;;;;;;;12.38;3.17;;;9.70;99.90;;;;;;5027785;28;20497;-72
2023/12/21 05:12:44;;;;;;;16.35;3.00;;;9.80;99.90;;;;;;5026974;28;20096;-72
2023/12/21 05:15:10;;;;;;;17.80;2.40;;;9.80;99.90;;;;;;5024754;28;20623;-72
2023/12/21 05:17:35;;;;;;;16.77;2.90;;;9.80;99.90;;;;;;5028382;28;20033;-72
2023/12/21 05:20:01;;;;;;;16.85;4.20;;;9.80;99.90;;;;;;5028576;28;20100;-72
2023/12/21 05:22:27;;;;;;;13.88;2.90;;;9.80;99.90;;;;;;5028568;28;20033;-72
2023/12/21 05:24:52;;;;;;;12.85;2.55;;;9.80;99.90;;;;;;5028177;28;20359;-72
2023/12/21 05:27:18;;;;;;;18.35;3.25;;;9.80;99.90;;;;;;5028092;28;20051;-72
2023/12/21 05:29:43;;;;;;;13.82;3.17;;;9.80;99.90;;;;;;5027796;28;20037;-72
2023/12/21 05:32:09;;;;;;;18.98;2.72;;;9.70;99.90;;;;;;5028129;28;20024;-72
2023/12/21 05:34:34;;;;;;;17.27;2.47;;;9.60;99.90;;;;;;5031424;28;20041;-72
2023/12/21 05:37:00;;;;;;;14.52;3.45;;;9.60;99.90;;;;;;5031479;28;20034;-72
2023/12/21 05:39:27;;;;;;;14.63;2.35;;;9.50;99.90;;;;;;5031971;28;20036;-72
2023/12/21 05:41:53;;;;;;;16.33;2.75;;;9.50;99.90;;;;;;5031131;28;20017;-72
2023/12/21 05:44:18;;;;;;;20.38;3.30;;;9.50;99.90;;;;;;5026326;28;20029;-72
2023/12/21 05:46:44;;;;;;;19.13;3.03;;;9.40;99.90;;;;;;5030412;28;20040;-72
2023/12/21 05:49:10;;;;;;;15.32;3.53;;;9.40;99.90;;;;;;5029818;28;20025;-72
2023/12/21 05:51:35;;;;;;;14.27;2.45;;;9.40;99.90;;;;;;5027239;28;20033;-72
2023/12/21 05:54:01;;;;;;;19.52;3.17;;;9.40;99.90;;;;;;5033833;28;20493;-72
2023/12/21 05:56:27;;;;;;;13.77;2.03;;;9.30;99.90;;;;;;5028526;28;20072;-72
2023/12/21 05:58:53;;;;;;;10.35;2.20;;;9.40;99.90;;;;;;5032537;28;20458;-72
2023/12/21 06:01:18;;;;;;;15.68;2.50;;;9.40;99.90;;;;;;5027700;28;20022;-72
2023/12/21 06:03:44;;;;;;;14.60;2.78;;;9.40;99.90;;;;;;5030305;28;20054;-72
2023/12/21 06:06:09;;;;;;;14.02;2.28;;;9.40;99.90;;;;;;5030932;28;20047;-72
2023/12/21 06:08:35;;;;;;;16.58;2.58;;;9.40;99.90;;;;;;5032231;28;20057;-72
2023/12/21 06:11:01;;;;;;;15.95;2.00;;;9.40;99.90;;;;;;5033103;28;20044;-72
2023/12/21 06:13:28;;;;;;;17.23;2.83;;;9.40;99.90;;;;;;5028701;28;20455;-72
2023/12/21 06:15:53;;;;;;;15.82;2.25;;;9.40;99.90;;;;;;5026282;28;20029;-72
2023/12/21 06:18:19;;;;;;;17.10;2.63;;;9.40;99.90;;;;;;5031124;28;20076;-73
2023/12/21 06:20:45;;;;;;;10.18;2.67;;;9.40;99.90;;;;;;5030512;28;20033;-72
2023/12/21 06:23:10;;;;;;;9.80;2.40;;;9.50;99.90;;;;;;5030747;28;20481;-72
2023/12/21 06:25:36;;;;;;;13.10;2.58;;;9.40;99.90;;;;;;5030062;28;20029;-72
2023/12/21 06:28:01;;;;;;;12.90;1.92;;;9.40;99.90;;;;;;5025911;28;20575;-72
2023/12/21 06:30:27;;;;;;;12.43;3.08;;;9.40;99.90;;;;;;5019056;28;20133;-72
2023/12/21 06:32:53;;;;;;;12.80;2.67;;;9.40;99.90;;;;;;5026480;28;20025;-72
2023/12/21 06:35:19;;;;;;;14.23;2.38;;;9.40;99.90;;;;;;5027721;28;20033;-72
2023/12/21 06:37:45;;;;;;;18.27;2.78;;;9.40;99.90;;;;;;5030842;28;20036;-72
2023/12/21 06:40:11;;;;;;;15.38;2.58;;;9.40;99.90;;;;;;5026035;28;20117;-72
2023/12/21 06:42:36;;;;;;;13.65;3.75;;;9.50;99.90;;;;;;5021947;28;20570;-72
2023/12/21 06:45:03;;;;;;;11.63;3.05;;;9.40;99.90;;;;;;5029256;28;20493;-72
2023/12/21 06:47:28;;;;;;;15.85;3.60;;;9.50;99.90;;;;;;5026724;28;20021;-71
2023/12/21 06:49:54;;;;;;;12.95;3.13;;;9.40;99.90;;;;;;5028799;28;20484;-72
2023/12/21 06:52:21;;;;;;;16.38;3.35;;;9.40;99.90;;;;;;5025698;28;20017;-72
2023/12/21 06:54:47;;;;;;;14.95;3.28;;;9.50;99.90;;;;;;5030233;28;20072;-72
2023/12/21 06:57:13;;;;;;;14.48;3.60;;;9.40;99.90;;;;;;5027037;28;20447;-72
2023/12/21 06:59:39;;;;;;;13.43;3.22;;;9.50;99.90;;;;;;5027620;28;20033;-72
2023/12/21 07:02:05;;;;;;;16.52;3.38;;;9.40;99.90;;;;;;5031500;28;20033;-72
2023/12/21 07:04:30;;;;;;;11.70;2.00;;;9.50;99.90;;;;;;5031095;28;20045;-71
2023/12/21 07:06:58;;;;;;;15.57;3.38;;;9.40;99.90;;;;;;5020917;28;20108;-72
2023/12/21 07:09:23;;;;;;;14.27;3.08;;;9.50;99.90;;;;;;5030292;28;20033;-72
2023/12/21 07:11:49;;;;;;;18.80;2.25;;;9.40;99.90;;;;;;5023541;28;20030;-72
2023/12/21 07:14:14;;;;;;;15.55;2.78;;;9.50;99.90;;;;;;5030904;28;20112;-71
2023/12/21 07:16:41;;;;;;;13.68;2.60;;;9.50;99.90;;;;;;5031093;28;20025;-72
2023/12/21 07:19:06;;;;;;;12.20;2.40;;;9.50;99.90;;;;;;5028217;28;20025;-72
2023/12/21 07:21:32;;;;;;;12.40;2.88;;;9.50;99.90;;;;;;5029742;28;20029;-72
2023/12/21 07:23:58;;;;;;;12.48;2.25;;;9.50;99.90;;;;;;5029636;28;20095;-71
2023/12/21 07:26:24;;;;;;;20.30;2.92;;;9.50;99.90;;;;;;5028589;28;20054;-72
2023/12/21 07:28:50;;;;;;;16.00;2.80;;;9.50;99.90;;;;;;5027427;28;20033;-72
2023/12/21 07:31:17;;;;;;;11.73;1.88;;;9.50;99.90;;;;;;5029948;28;20543;-72
2023/12/21 07:33:43;;;;;;;15.98;2.13;;;9.60;99.90;;;;;;5020625;28;20022;-72
2023/12/21 07:36:09;;;;;;;10.25;1.35;;;9.60;99.90;;;;;;5028380;28;20030;-72
2023/12/21 07:38:35;;;;;;;17.48;1.95;;;9.60;99.90;;;;;;5017641;28;20099;-72
2023/12/21 07:41:01;;;;;;;11.60;2.00;;;9.60;99.90;;;;;;5022242;28;20037;-72
2023/12/21 07:43:29;;;;;;;14.07;1.20;;;9.60;99.90;;;;;;5025429;28;20087;-71
2023/12/21 07:45:55;;;;;;;7.68;0.75;;;9.60;99.90;;;;;;5019585;28;20108;-71
2023/12/21 07:48:21;;;;;;;11.55;1.30;;;9.60;99.90;;;;;;5018477;28;20577;-72
2023/12/21 07:50:47;;;;;;;15.65;1.30;;;9.60;99.90;;;;;;5021141;28;20117;-72
2023/12/21 07:53:13;;;;;;;11.73;1.60;;;9.50;99.90;;;;;;5020899;28;20109;-71
2023/12/21 07:55:38;;;;;;;16.05;1.63;;;9.50;99.90;;;;;;5040956;28;20128;-71
2023/12/21 07:58:05;;;;;;;7.18;0.95;;;9.60;99.90;;;;;;5020440;28;20033;-71
2023/12/21 08:00:31;;;;;;;14.82;1.25;;;9.50;99.90;;;;;;5020946;28;20076;-71
2023/12/21 08:02:57;;;;;;;9.70;1.48;;;9.50;99.90;;;;;;5018880;28;20494;-71
2023/12/21 08:05:23;;;;;;;7.40;1.10;;;9.50;99.90;;;;;;5029655;28;20079;-71
2023/12/21 08:07:51;;;;;;;9.20;1.27;;;9.50;99.90;;;;;;5028013;28;20053;-71
2023/12/21 08:10:17;;;;;;;11.80;1.30;;;9.60;99.90;;;;;;5023021;28;20042;-71
2023/12/21 08:12:44;;;;;;;11.00;1.20;;;9.50;99.90;;;;;;5014418;28;20028;-71
2023/12/21 08:15:10;;;;;;;9.43;1.10;;;9.50;99.90;;;;;;5019538;28;20351;-71
2023/12/21 08:17:36;;;;;;;8.93;1.23;;;9.50;99.90;;;;;;5027068;28;20083;-71
2023/12/21 08:20:05;;;;;;;10.02;1.30;;;9.50;99.90;;;;;;5026091;28;20600;-71
2023/12/21 08:22:31;;;;;;;7.53;1.00;;;9.50;99.90;;;;;;5027402;28;20061;-71
2023/12/21 08:24:58;;;;;;;10.70;1.23;;;9.60;99.90;;;;;;5028210;28;20053;-71
2023/12/21 08:27:24;;;;;;;7.75;1.30;;;9.60;99.90;;;;;;5028713;28;20033;-71
2023/12/21 08:29:51;;;;;;;6.70;0.98;;;9.60;99.90;;;;;;5027480;28;20124;-71
2023/12/21 08:32:18;;;;;;;8.25;1.10;;;9.60;99.90;;;;;;5026609;28;20079;-71
2023/12/21 08:34:44;;;;;;;9.65;1.40;;;9.60;99.90;;;;;;5023522;28;20033;-71
2023/12/21 08:37:09;;;;;;;5.72;1.50;;;9.60;99.90;;;;;;5028937;28;20389;-71
2023/12/21 08:39:35;;;;;;;11.65;1.95;;;9.60;99.90;;;;;;5024264;28;20037;-71
2023/12/21 08:42:02;;;;;;;7.82;1.60;;;9.70;99.90;;;;;;5026408;28;20037;-71
2023/12/21 08:44:28;;;;;;;9.07;1.75;;;9.60;99.90;;;;;;5030509;28;20481;-71
2023/12/21 08:46:54;;;;;;;13.02;2.25;;;9.60;99.90;;;;;;5023544;28;20034;-71
2023/12/21 08:49:19;;;;;;;9.30;1.55;;;9.60;99.90;;;;;;5022916;28;20566;-71
2023/12/21 08:51:45;;;;;;;8.43;1.70;;;9.70;99.90;;;;;;5023056;28;20387;-72
2023/12/21 08:54:11;;;;;;;8.45;2.15;;;9.70;99.90;;;;;;5019623;28;20035;-72
2023/12/21 08:56:46;;;;;;;12.02;1.98;;;9.70;99.90;;;;;;5018786;28;20081;-72
2023/12/21 08:59:12;;;;;;;10.02;2.03;;;9.70;99.90;;;;;;5027246;28;20044;-71
2023/12/21 09:01:38;;;;;;;15.07;2.92;;;9.70;99.90;;;;;;5028925;28;20025;-72
2023/12/21 09:04:04;;;;;;;10.70;1.75;;;9.70;99.90;;;;;;5031527;28;20042;-72
2023/12/21 09:06:31;;;;;;;10.98;1.65;;;9.70;99.90;;;;;;5026358;28;20026;-72
2023/12/21 09:08:57;;;;;;;8.80;1.23;;;9.70;99.90;;;;;;5028915;28;20037;-73
2023/12/21 09:11:23;;;;;;;11.88;1.90;;;9.70;99.90;;;;;;5031567;28;20029;-73
2023/12/21 09:13:48;;;;;;;10.68;1.48;;;9.80;99.90;;;;;;5031481;28;20038;-73
2023/12/21 09:16:17;;;;;;;14.50;1.15;;;9.80;99.90;;;;;;5026182;28;20033;-73
2023/12/21 09:18:46;;;;;;;15.40;1.70;;;9.80;99.90;;;;;;5023532;28;20028;-72
2023/12/21 09:21:12;;;;;;;8.02;0.98;;;9.80;99.90;;;;;;5021810;28;20063;-72
2023/12/21 09:23:39;;;;;;;11.77;1.27;;;9.80;99.90;;;;;;5024235;28;20505;-72
2023/12/21 09:26:08;;;;;;;8.73;1.48;;;9.80;99.90;;;;;;5019391;28;20420;-72
2023/12/21 09:28:35;;;;;;;10.02;0.70;;;9.90;99.90;;;;;;5029480;28;20076;-72
2023/12/21 09:31:00;;;;;;;11.30;1.40;;;9.90;99.90;;;;;;5030185;28;20044;-73
2023/12/21 09:33:26;;;;;;;7.53;0.70;;;9.90;99.90;;;;;;5029748;28;20021;-72
2023/12/21 09:35:54;;;;;;;9.52;0.70;;;9.90;99.90;;;;;;5028751;28;20109;-72
2023/12/21 09:38:20;;;;;;;11.13;0.80;;;9.90;99.90;;;;;;5017727;28;20841;-72
2023/12/21 09:40:46;;;;;;;12.75;1.05;;;9.90;99.90;;;;;;5025737;28;20292;-72
2023/12/21 09:43:16;;;;;;;24.50;1.13;;;9.90;99.90;;;;;;5029883;28;20481;-71
2023/12/21 09:45:46;;;;;;;9.80;0.95;;;9.90;99.90;;;;;;5015948;28;20065;-72
2023/12/21 09:48:14;;;;;;;8.73;0.95;;;9.90;99.90;;;;;;5029833;28;20022;-71
2023/12/21 09:50:44;;;;;;;11.65;0.75;;;9.90;99.90;;;;;;5027074;28;20034;-71
2023/12/21 09:53:13;;;;;;;19.20;1.15;;;9.90;99.90;;;;;;5041604;28;20025;-71
2023/12/21 09:55:44;;;;;;;7.40;0.85;;;9.90;99.90;;;;;;5022234;28;20551;-72
2023/12/21 09:58:12;;;;;;;9.60;0.52;;;9.90;99.90;;;;;;5017770;28;20030;-71
2023/12/21 10:00:38;;;;;;;10.30;1.00;;;9.90;99.90;;;;;;5026886;28;20033;-72
2023/12/21 10:03:04;;;;;;;13.32;0.60;;;10.00;99.90;;;;;;5026280;28;20052;-72
2023/12/21 10:05:30;;;;;;;11.98;1.13;;;10.00;99.90;;;;;;5023827;28;20037;-71
2023/12/21 10:07:58;;;;;;;11.63;1.00;;;10.00;99.90;;;;;;5024949;28;20117;-72
2023/12/21 10:10:23;;;;;;;9.88;1.25;;;10.00;99.90;;;;;;4978853;28;20029;-72
2023/12/21 10:12:49;;;;;;;15.73;0.80;;;10.10;99.90;;;;;;5026727;28;20029;-72
2023/12/21 10:15:16;;;;;;;14.32;1.13;;;10.10;99.90;;;;;;5027433;28;20037;-73
2023/12/21 10:17:42;;;;;;;12.13;0.93;;;10.10;99.90;;;;;;5031010;28;20053;-73
2023/12/21 10:20:11;;;;;;;10.13;1.00;;;10.10;99.90;;;;;;5029190;28;20440;-72
2023/12/21 10:22:44;;;;;;;10.05;0.47;;;10.10;99.90;;;;;;5039831;28;20489;-73
2023/12/21 10:25:11;;;;;;;14.85;2.00;;;10.10;99.90;;;;;;5027088;28;20025;-73
2023/12/21 10:27:37;;;;;;;13.98;1.40;;;10.10;99.90;;;;;;5030631;28;20116;-72
2023/12/21 10:30:04;;;;;;;9.15;1.05;;;10.10;99.90;;;;;;5026487;28;20123;-74
2023/12/21 10:32:30;;;;;;;11.10;0.50;;;10.10;99.90;;;;;;5031882;28;20022;-74
2023/12/21 10:34:58;;;;;;;10.70;0.60;;;10.20;99.90;;;;;;5029086;28;20029;-74
2023/12/21 10:37:24;;;;;;;9.65;0.70;;;10.30;99.90;;;;;;5032267;28;20034;-74
2023/12/21 10:39:50;;;;;;;4.20;0.45;;;10.30;99.90;;;;;;5027681;28;20025;-74
2023/12/21 10:42:15;;;;;;;8.30;0.40;;;10.30;99.90;;;;;;5029215;28;20025;-73
2023/12/21 10:44:44;;;;;;;7.57;0.60;;;10.30;99.90;;;;;;5026267;28;20037;-73
2023/12/21 10:47:20;;;;;;;11.90;0.85;;;10.30;99.90;;;;;;5023910;28;20018;-74
2023/12/21 10:49:46;;;;;;;11.35;0.70;;;10.40;99.90;;;;;;5017764;28;20401;-74
2023/12/21 10:52:12;;;;;;;11.10;0.60;;;10.30;99.90;;;;;;5024509;28;20032;-73
2023/12/21 10:54:42;;;;;;;10.43;0.50;;;10.40;99.90;;;;;;5026499;28;20033;-73
2023/12/21 10:57:08;;;;;;;8.50;0.93;;;10.40;99.90;;;;;;5025041;28;20501;-73
2023/12/21 10:59:35;;;;;;;6.07;0.80;;;10.50;99.90;;;;;;5022949;28;20030;-72
2023/12/21 11:02:02;;;;;;;3.55;0.40;;;10.60;99.90;;;;;;5022316;28;20063;-73
2023/12/21 11:04:28;;;;;;;8.63;0.52;;;10.70;99.90;;;;;;5017658;28;20084;-72
2023/12/21 11:06:55;;;;;;;10.25;0.88;;;10.70;99.90;;;;;;5026087;28;20029;-72
2023/12/21 11:09:22;;;;;;;9.75;0.65;;;10.70;99.90;;;;;;5027716;28;20124;-72
2023/12/21 11:11:48;;;;;;;10.35;0.80;;;10.70;99.90;;;;;;5030551;28;20482;-72
2023/12/21 11:14:14;;;;;;;10.30;0.95;;;10.70;99.90;;;;;;5030127;28;20113;-72
2023/12/21 11:16:50;;;;;;;8.80;0.68;;;10.70;99.90;;;;;;5031121;28;20117;-73
2023/12/21 11:19:22;;;;;;;7.20;0.60;;;10.70;99.90;;;;;;5019184;28;20473;-72
2023/12/21 11:21:49;;;;;;;9.13;0.55;;;10.60;99.90;;;;;;5028011;28;20029;-73
2023/12/21 11:24:24;;;;;;;7.32;0.52;;;10.60;99.90;;;;;;5028786;28;20043;-72
2023/12/21 11:26:51;;;;;;;6.95;1.13;;;10.60;99.90;;;;;;5032371;28;20040;-73
2023/12/21 11:29:27;;;;;;;9.45;0.68;;;10.60;99.90;;;;;;5029482;28;20040;-73
2023/12/21 11:31:54;;;;;;;4.40;0.50;;;10.60;99.90;;;;;;5028205;28;20056;-73
2023/12/21 11:34:34;;;;;;;6.47;0.60;;;10.60;99.90;;;;;;5017117;28;20042;-73
2023/12/21 11:37:23;;;;;;;8.45;0.60;;;10.60;99.90;;;;;;5016356;28;20037;-72
2023/12/21 11:39:57;;;;;;;10.73;1.08;;;10.60;99.90;;;;;;5017114;28;20028;-73
2023/12/21 11:42:37;;;;;;;5.30;0.60;;;10.50;99.90;;;;;;5018460;28;20482;-73
2023/12/21 11:45:03;;;;;;;8.27;0.90;;;10.50;99.90;;;;;;5041350;22;20133;-93
2023/12/21 11:47:30;;;;;;;7.65;0.80;;;10.50;99.90;;;;;;5027467;28;20075;-94
2023/12/21 11:50:09;;;;;;;13.13;1.33;;;10.50;99.90;;;;;;5027834;28;20033;-93
2023/12/21 11:52:36;;;;;;;8.18;1.00;;;10.60;99.90;;;;;;5023973;28;20498;-93
2023/12/21 11:55:01;;;;;;;9.48;0.60;;;10.60;99.90;;;;;;5018107;28;20450;-93
2023/12/21 11:57:28;;;;;;;6.80;1.00;;;10.70;99.90;;;;;;5016265;28;20034;-93
2023/12/21 12:00:18;;;;;;;6.53;0.60;;;10.70;99.90;;;;;;5019399;28;20472;-92
2023/12/21 12:02:44;;;;;;;4.85;0.50;;;10.60;99.90;;;;;;5027453;28;20120;-92
2023/12/21 12:05:30;;;;;;;5.72;0.77;;;10.60;99.90;;;;;;5021236;28;20040;-92
2023/12/21 12:07:56;;;;;;;8.38;0.70;;;10.50;99.90;;;;;;5013897;28;20125;-94
2023/12/21 12:10:22;;;;;;;5.47;0.60;;;10.40;99.90;;;;;;5017870;28;20131;-94
2023/12/21 12:12:48;;;;;;;8.95;0.70;;;10.40;99.90;;;;;;5027084;28;20033;-92
2023/12/21 12:15:14;;;;;;;9.32;0.70;;;10.30;99.90;;;;;;5023972;28;20063;-93
2023/12/21 12:17:41;;;;;;;9.15;1.00;;;10.30;99.90;;;;;;5024640;28;20128;-94
2023/12/21 12:20:09;;;;;;;10.07;0.70;;;10.30;99.90;;;;;;5015771;28;20029;-93
2023/12/21 12:22:35;;;;;;;10.20;1.50;;;10.30;99.90;;;;;;5026069;28;20394;-93
2023/12/21 12:25:01;;;;;;;11.60;1.33;;;10.30;99.90;;;;;;5025637;28;20021;-95
2023/12/21 12:27:28;;;;;;;12.48;1.33;;;10.20;99.90;;;;;;5028632;28;20041;-92
2023/12/21 12:29:54;;;;;;;5.85;1.10;;;10.30;99.90;;;;;;5027881;28;20044;-93
2023/12/21 12:32:21;;;;;;;10.90;0.90;;;10.40;99.90;;;;;;5027672;28;20076;-91
2023/12/21 12:34:46;;;;;;;10.70;1.70;;;10.30;99.90;;;;;;5014637;28;20026;-90
2023/12/21 12:37:12;;;;;;;6.43;0.63;;;10.30;99.90;;;;;;5030727;28;20075;-92
2023/12/21 12:39:38;;;;;;;6.65;0.98;;;10.40;99.90;;;;;;5029921;28;20030;-93
2023/12/21 12:42:05;;;;;;;12.85;1.27;;;10.40;99.90;;;;;;5028641;28;20037;-92
2023/12/21 12:44:31;;;;;;;6.50;1.05;;;10.40;99.90;;;;;;5029851;28;20525;-93